首页
METAR-TAF:

METAR-TAF

机场 :

空军基地

Solenzara, 法国

纬度: 41-55N, 经度: 009-24E, 海拔: 8米

当前天气观测

该预报发布于29分钟前的06:30 UTC
风速5节,风向西转西北,在西转西南北转西北之间变化
温度 10°C
湿度 93%
气压 1000 hPa
能见度10公里或以上
小雨

METAR: LFKS 170630Z AUTO 29005KT 250V330 9999 -RA BKN064/// OVC076/// ///TCU 10/09 Q1000

时间: 07:59 (06:59 UTC)

预报

该预报发布于22小时和59分钟前的08:00 UTC
预报有效从15日的 09点(UTC)到 16日的 09点(UTC)
风速10节,风向
能见度10公里或以上
多云层高于6000英尺
短暂存在
从 15日的 09点(UTC)到 15日的 18点(UTC)
风速10节,风向,有时为20节阵风
能見度: 4000
多云层高于4000英尺, 塔状积云.
多云层高于6000英尺
小阵雨
成为
从 16日的 00点(UTC)到 16日的 02点(UTC)
能见度10公里或以上
1500米以下无云,无积雨云

TAF: LFKS 150800Z 1509/1609 17010KT 9999 BKN060 TEMPO 1509/1518 17010G20KT 4000 -SHRA BKN040TCU BKN060 BECMG 1600/1602 CAVOK

超过4000个机场的气象观测和天气预报(METAR&TAF报告)。

可查询的气象台以黄色和红色小点在地图上表示。

将鼠标移到小点上方,可查看气象台名称。

然后点击查看天气观测和预报。

如需切换地图:点击带黑十字的绿色按钮放大地图;点击带横线的绿色按钮缩小地图;或者点击绿色箭头查看邻近地区的地图。


METAR-TAF: